Terminal Aerodrome Forecast
Issued by NWS Louisville, KY

Home | Current Version | Previous Version | Text Only | Print | Product List | Glossary On
Versions: 1 2 3 4 5 6 7 8 9 10 11 12 13 14 15 16 17 18 19 20 21
000
FTUS43 KLMK 200800 AAA
TAFLEX
TAF AMD
KLEX 200806Z 2008/2106 20005KT P6SM -SHRA VCTS BKN025CB
     FM201000 20005KT 4SM BR SCT150
     FM201300 21007KT P6SM SCT040
     FM210000 27008KT P6SM VCTS BKN050CB=

USA.gov is the U.S. government's official web portal to all federal, state and local government web resources and services.